Skip to main content

NOAA/GLERL Met Station at Chicago, IL

Previous 3 Hours (2 minute increments)
See also Previous 5 Days (top of hour)
Jump down to Data
Switch to [English][Metric]
Zoom: Click and drag, Pan: shift-click and drag, Unzoom: double-click, Unzoom All




See also 1-day windrose plot


NOAA/GLERL Met Station at Chicago, IL

Previous 3 Hours (2 minute increments)
See also Previous 5 Days (top of hour only)
Jump up to Graphs
Switch to [English][Metric]
                  Wind  Wind  Wind   Air   Dew   Rel
                   Spd   Gst   Dir  Temp    Pt   Hum
YYYY-MM-DD   CDT   m/s   m/s   deg     C     C     %
2021-04-19 13:36   9.0  10.2   275   8.0   2.7  68.9
2021-04-19 13:34   9.2  10.8   285   8.1   2.7  68.6
2021-04-19 13:32   9.8  10.6   285   8.1   2.6  68.0
2021-04-19 13:30   8.0   9.2   289   8.1   3.0  69.9
2021-04-19 13:28   7.4   8.2   290   8.0   2.6  68.8
2021-04-19 13:26   8.5   9.3   284   8.0   2.6  68.8
2021-04-19 13:24   9.3  10.5   288   8.1   2.6  68.2
2021-04-19 13:22   8.8  10.2   282   8.2   3.0  69.8
2021-04-19 13:20   8.7   9.6   277   8.3   2.7  67.6
2021-04-19 13:18   7.1   8.5   277   8.3   2.8  68.3
2021-04-19 13:16   8.3   9.7   287   8.2   2.6  67.5
2021-04-19 13:14   7.3  10.0   268   8.0   4.3  77.3
2021-04-19 13:12   5.5   6.0   255   7.9   4.8  80.5
2021-04-19 13:10   4.8   5.8   249   7.9   4.7  80.0
2021-04-19 13:08   5.4   6.4   246   7.8   4.6  80.2
2021-04-19 13:06   5.6   6.2   242   7.8   4.6  80.2
2021-04-19 13:04   5.7   6.1   240   7.8   4.4  79.1
2021-04-19 13:02   6.2   6.7   240   7.8   4.5  79.6
2021-04-19 13:00   5.0   6.1   248   7.8   4.4  78.8
2021-04-19 12:58   4.6   5.3   237   7.8   4.4  78.8
2021-04-19 12:56   5.3   6.0   244   7.8   4.4  79.2
2021-04-19 12:54   5.1   5.8   242   7.8   4.4  79.2
2021-04-19 12:52   5.0   6.3   249   7.9   4.6  79.5
2021-04-19 12:50   4.1   4.8   242   7.8   4.5  79.4
2021-04-19 12:48   4.1   4.5   247   7.8   4.3  78.2
2021-04-19 12:46   5.3   5.9   251   7.8   4.4  78.9
2021-04-19 12:44   5.8   6.6   245   7.8   4.4  78.9
2021-04-19 12:42   5.5   6.3   243   7.8   4.3  78.6
2021-04-19 12:40   5.9   7.4   255   7.8   4.3  78.2
2021-04-19 12:38   6.0   6.8   248   7.8   4.1  77.1
2021-04-19 12:36   5.8   7.2   259   7.8   4.0  77.0
2021-04-19 12:34   6.0   6.5   247   7.8   4.5  79.5
2021-04-19 12:32   6.0   7.2   241   7.7   4.1  77.9
2021-04-19 12:30   6.3   6.9   243   7.8   4.4  79.2
2021-04-19 12:28   6.2   7.7   260   7.8   3.8  75.7
2021-04-19 12:26   7.6   9.4   256   7.8   3.9  76.2
2021-04-19 12:24   7.4   8.6   261   7.7   3.4  74.3
2021-04-19 12:22   7.3   9.1   257   7.8   3.7  75.4
2021-04-19 12:20   7.0   8.8   264   7.7   3.7  75.5
2021-04-19 12:18   8.4   9.2   260   7.8   3.8  75.6
2021-04-19 12:16   8.1   9.3   264   7.7   3.8  76.2
2021-04-19 12:14   7.3   8.5   258   7.6   3.6  75.8
2021-04-19 12:12   7.1   8.4   260   7.6   4.3  79.6
2021-04-19 12:10   7.9   9.1   260   7.7   4.7  81.0
2021-04-19 12:08   8.0   9.4   267   7.6   4.5  80.8
2021-04-19 12:06   7.3   8.6   261   7.6   4.6  81.2
2021-04-19 12:04   7.1   7.5   263   7.6   4.7  81.7
2021-04-19 12:02   6.9   7.8   263   7.5   4.6  81.9
2021-04-19 12:00   6.7   7.3   258   7.5   4.7  82.2
2021-04-19 11:58   7.2   7.9   268   7.4   4.6  82.1
2021-04-19 11:56   6.7   7.2   270   7.4   4.5  81.8
2021-04-19 11:54   7.2   8.8   265   7.4   4.4  81.2
2021-04-19 11:52   9.0  10.4   274   7.3   4.1  79.8
2021-04-19 11:50   9.6  11.7   272   7.4   4.1  79.7
2021-04-19 11:48   9.8  11.4   270   7.4   4.2  80.1
2021-04-19 11:46   9.8  10.7   270   7.5   4.2  79.7
2021-04-19 11:44   8.7   9.7   275   7.5   4.1  78.8
2021-04-19 11:42   9.5  10.6   276   7.5   4.0  78.3
2021-04-19 11:40  10.4  12.6   277   7.5   4.0  78.2
2021-04-19 11:38   9.0  10.8   277   7.5   4.0  78.6
2021-04-19 11:36   8.9  10.0   280   7.4   3.9  78.4
2021-04-19 11:34  10.1  11.5   283   7.5   4.0  78.4
2021-04-19 11:32  11.1  12.5   285   7.5   3.8  77.5
2021-04-19 11:30  11.3  13.1   273   7.5   3.9  77.6
2021-04-19 11:28   9.3  12.7   278   7.5   4.7  82.1
2021-04-19 11:26   8.3   9.7   280   7.5   4.8  82.8
2021-04-19 11:24   8.7   9.7   283   7.4   4.6  82.5
2021-04-19 11:22   9.5  10.3   286   7.4   4.4  81.4
2021-04-19 11:20   9.6  10.6   288   7.4   4.4  81.4
2021-04-19 11:18   9.5  10.3   287   7.4   4.6  82.2
2021-04-19 11:16  10.1  11.2   285   7.4   4.6  82.2
2021-04-19 11:14  10.7  12.8   286   7.3   4.7  83.3
2021-04-19 11:12   9.9  10.6   285   7.4   5.2  85.9
2021-04-19 11:10  10.0  10.8   289   7.4   5.1  85.3
2021-04-19 11:08  11.2  12.6   291   7.5   5.0  83.8
2021-04-19 11:06  10.3  11.2   295   7.5   5.1  84.4
2021-04-19 11:04  11.4  12.6   294   7.5   5.2  85.1
2021-04-19 11:02  11.1  12.6   289   7.6   5.6  86.9
2021-04-19 11:00  12.0  12.9   291   7.7   5.8  87.7
2021-04-19 10:58  11.0  12.4   295   7.9   6.5  90.8
2021-04-19 10:56  10.3  11.6   300   7.9   6.7  92.0
2021-04-19 10:54  10.1  11.4   302   7.9   6.8  92.6
2021-04-19 10:52   9.8  10.8   305   7.9   6.8  92.9
2021-04-19 10:50  10.3  11.2   302   8.0   6.9  92.8
2021-04-19 10:48   9.8  11.1   305   8.1   6.8  91.4
2021-04-19 10:46  11.0  11.6   303   8.2   6.9  91.3
2021-04-19 10:44   9.7  10.3   311   8.3   6.9  90.8
2021-04-19 10:42  10.0  10.7   315   8.5   6.6  87.7
2021-04-19 10:40   9.1  10.0   306   9.5   6.6  81.7
2021-04-19 10:38   7.5   8.2   288   9.8   6.5  79.6
2021-04-19 10:36   8.4   9.2   289   9.8   6.5  79.7